sensor_id;sensor_type;location;lat;lon;timestamp;P1;durP1;ratioP1;P2;durP2;ratioP2
44822;SDS011;51097;51.984;5.650;2024-01-30T00:00:07;16.95;;;12.85;;
44822;SDS011;51097;51.984;5.650;2024-01-30T00:02:33;15.15;;;13.02;;
44822;SDS011;51097;51.984;5.650;2024-01-30T00:04:58;19.65;;;13.27;;
44822;SDS011;51097;51.984;5.650;2024-01-30T00:07:24;18.33;;;12.15;;
44822;SDS011;51097;51.984;5.650;2024-01-30T00:09:50;19.80;;;13.20;;
44822;SDS011;51097;51.984;5.650;2024-01-30T00:12:15;18.20;;;12.30;;
44822;SDS011;51097;51.984;5.650;2024-01-30T00:14:42;19.80;;;13.55;;
44822;SDS011;51097;51.984;5.650;2024-01-30T00:17:08;18.23;;;12.70;;
44822;SDS011;51097;51.984;5.650;2024-01-30T00:19:34;19.48;;;13.50;;
44822;SDS011;51097;51.984;5.650;2024-01-30T00:22:00;17.48;;;12.43;;
44822;SDS011;51097;51.984;5.650;2024-01-30T00:24:25;18.55;;;13.02;;
44822;SDS011;51097;51.984;5.650;2024-01-30T00:26:51;14.73;;;11.20;;
44822;SDS011;51097;51.984;5.650;2024-01-30T00:29:17;18.13;;;13.15;;
44822;SDS011;51097;51.984;5.650;2024-01-30T00:31:44;17.17;;;13.52;;
44822;SDS011;51097;51.984;5.650;2024-01-30T00:34:10;23.20;;;12.65;;
44822;SDS011;51097;51.984;5.650;2024-01-30T00:36:36;16.25;;;12.40;;
44822;SDS011;51097;51.984;5.650;2024-01-30T00:39:02;17.75;;;12.35;;
44822;SDS011;51097;51.984;5.650;2024-01-30T00:41:31;13.73;;;11.35;;
44822;SDS011;51097;51.984;5.650;2024-01-30T00:43:57;18.05;;;13.63;;
44822;SDS011;51097;51.984;5.650;2024-01-30T00:46:22;15.55;;;11.90;;
44822;SDS011;51097;51.984;5.650;2024-01-30T00:48:51;17.77;;;12.38;;
44822;SDS011;51097;51.984;5.650;2024-01-30T00:51:16;15.00;;;12.30;;
44822;SDS011;51097;51.984;5.650;2024-01-30T00:53:42;13.63;;;11.85;;
44822;SDS011;51097;51.984;5.650;2024-01-30T00:56:07;16.85;;;12.20;;
44822;SDS011;51097;51.984;5.650;2024-01-30T00:58:33;15.77;;;11.50;;
44822;SDS011;51097;51.984;5.650;2024-01-30T01:00:59;17.30;;;12.02;;
44822;SDS011;51097;51.984;5.650;2024-01-30T01:03:25;14.63;;;10.70;;
44822;SDS011;51097;51.984;5.650;2024-01-30T01:05:50;15.57;;;11.95;;
44822;SDS011;51097;51.984;5.650;2024-01-30T01:08:16;16.45;;;11.45;;
44822;SDS011;51097;51.984;5.650;2024-01-30T01:10:41;17.95;;;11.77;;
44822;SDS011;51097;51.984;5.650;2024-01-30T01:13:07;15.40;;;11.88;;
44822;SDS011;51097;51.984;5.650;2024-01-30T01:15:32;22.17;;;12.80;;
44822;SDS011;51097;51.984;5.650;2024-01-30T01:17:58;12.20;;;10.32;;
44822;SDS011;51097;51.984;5.650;2024-01-30T01:20:23;14.27;;;11.50;;
44822;SDS011;51097;51.984;5.650;2024-01-30T01:22:49;15.52;;;11.15;;
44822;SDS011;51097;51.984;5.650;2024-01-30T01:25:14;16.13;;;11.52;;
44822;SDS011;51097;51.984;5.650;2024-01-30T01:27:40;16.60;;;12.18;;
44822;SDS011;51097;51.984;5.650;2024-01-30T01:30:08;18.05;;;10.85;;
44822;SDS011;51097;51.984;5.650;2024-01-30T01:32:35;15.40;;;11.15;;
44822;SDS011;51097;51.984;5.650;2024-01-30T01:35:01;13.45;;;10.40;;
44822;SDS011;51097;51.984;5.650;2024-01-30T01:37:27;13.82;;;11.50;;
44822;SDS011;51097;51.984;5.650;2024-01-30T01:39:53;15.82;;;11.80;;
44822;SDS011;51097;51.984;5.650;2024-01-30T01:42:18;17.48;;;11.70;;
44822;SDS011;51097;51.984;5.650;2024-01-30T01:44:44;15.77;;;11.43;;
44822;SDS011;51097;51.984;5.650;2024-01-30T01:47:09;14.68;;;11.98;;
44822;SDS011;51097;51.984;5.650;2024-01-30T01:49:35;16.15;;;11.75;;
44822;SDS011;51097;51.984;5.650;2024-01-30T01:52:02;16.52;;;11.43;;
44822;SDS011;51097;51.984;5.650;2024-01-30T01:54:28;18.70;;;11.75;;
44822;SDS011;51097;51.984;5.650;2024-01-30T01:56:54;14.75;;;11.05;;
44822;SDS011;51097;51.984;5.650;2024-01-30T01:59:20;16.27;;;11.57;;
44822;SDS011;51097;51.984;5.650;2024-01-30T02:01:47;13.95;;;11.57;;
44822;SDS011;51097;51.984;5.650;2024-01-30T02:04:14;14.90;;;11.60;;
44822;SDS011;51097;51.984;5.650;2024-01-30T02:06:40;16.95;;;12.10;;
44822;SDS011;51097;51.984;5.650;2024-01-30T02:09:06;17.92;;;11.57;;
44822;SDS011;51097;51.984;5.650;2024-01-30T02:11:32;19.98;;;12.23;;
44822;SDS011;51097;51.984;5.650;2024-01-30T02:14:02;15.52;;;11.52;;
44822;SDS011;51097;51.984;5.650;2024-01-30T02:16:31;18.55;;;12.02;;
44822;SDS011;51097;51.984;5.650;2024-01-30T02:18:57;16.63;;;12.60;;
44822;SDS011;51097;51.984;5.650;2024-01-30T02:21:22;14.93;;;11.23;;
44822;SDS011;51097;51.984;5.650;2024-01-30T02:23:48;15.75;;;12.38;;
44822;SDS011;51097;51.984;5.650;2024-01-30T02:26:14;14.77;;;11.50;;
44822;SDS011;51097;51.984;5.650;2024-01-30T02:28:40;17.35;;;12.60;;
44822;SDS011;51097;51.984;5.650;2024-01-30T02:31:08;16.48;;;12.15;;
44822;SDS011;51097;51.984;5.650;2024-01-30T02:33:34;14.20;;;12.20;;
44822;SDS011;51097;51.984;5.650;2024-01-30T02:35:59;17.63;;;13.20;;
44822;SDS011;51097;51.984;5.650;2024-01-30T02:38:25;18.92;;;12.52;;
44822;SDS011;51097;51.984;5.650;2024-01-30T02:40:51;16.30;;;12.60;;
44822;SDS011;51097;51.984;5.650;2024-01-30T02:43:17;15.93;;;13.20;;
44822;SDS011;51097;51.984;5.650;2024-01-30T02:45:43;13.27;;;10.65;;
44822;SDS011;51097;51.984;5.650;2024-01-30T02:48:08;17.63;;;12.38;;
44822;SDS011;51097;51.984;5.650;2024-01-30T02:50:34;16.67;;;12.48;;
44822;SDS011;51097;51.984;5.650;2024-01-30T02:53:00;18.08;;;11.85;;
44822;SDS011;51097;51.984;5.650;2024-01-30T02:55:25;14.82;;;12.48;;
44822;SDS011;51097;51.984;5.650;2024-01-30T02:57:51;19.90;;;13.68;;
44822;SDS011;51097;51.984;5.650;2024-01-30T03:00:16;15.23;;;11.98;;
44822;SDS011;51097;51.984;5.650;2024-01-30T03:02:42;14.90;;;12.30;;
44822;SDS011;51097;51.984;5.650;2024-01-30T03:05:08;17.05;;;11.50;;
44822;SDS011;51097;51.984;5.650;2024-01-30T03:07:34;17.33;;;11.73;;
44822;SDS011;51097;51.984;5.650;2024-01-30T03:09:59;16.13;;;12.05;;
44822;SDS011;51097;51.984;5.650;2024-01-30T03:12:25;15.35;;;11.18;;
44822;SDS011;51097;51.984;5.650;2024-01-30T03:14:50;18.00;;;12.48;;
44822;SDS011;51097;51.984;5.650;2024-01-30T03:17:16;17.65;;;12.32;;
44822;SDS011;51097;51.984;5.650;2024-01-30T03:19:41;13.80;;;11.32;;
44822;SDS011;51097;51.984;5.650;2024-01-30T03:22:07;15.90;;;11.95;;
44822;SDS011;51097;51.984;5.650;2024-01-30T03:24:33;18.20;;;11.93;;
44822;SDS011;51097;51.984;5.650;2024-01-30T03:26:58;15.02;;;12.48;;
44822;SDS011;51097;51.984;5.650;2024-01-30T03:29:24;17.63;;;12.25;;
44822;SDS011;51097;51.984;5.650;2024-01-30T03:31:49;15.73;;;11.82;;
44822;SDS011;51097;51.984;5.650;2024-01-30T03:34:15;15.60;;;11.55;;
44822;SDS011;51097;51.984;5.650;2024-01-30T03:36:41;17.45;;;12.65;;
44822;SDS011;51097;51.984;5.650;2024-01-30T03:39:06;13.77;;;11.48;;
44822;SDS011;51097;51.984;5.650;2024-01-30T03:41:32;15.73;;;11.65;;
44822;SDS011;51097;51.984;5.650;2024-01-30T03:43:57;14.77;;;12.38;;
44822;SDS011;51097;51.984;5.650;2024-01-30T03:46:24;16.38;;;12.20;;
44822;SDS011;51097;51.984;5.650;2024-01-30T03:48:49;16.23;;;11.50;;
44822;SDS011;51097;51.984;5.650;2024-01-30T03:51:15;19.50;;;12.48;;
44822;SDS011;51097;51.984;5.650;2024-01-30T03:53:44;14.82;;;11.65;;
44822;SDS011;51097;51.984;5.650;2024-01-30T03:58:38;15.73;;;10.93;;
44822;SDS011;51097;51.984;5.650;2024-01-30T04:01:04;16.27;;;11.70;;
44822;SDS011;51097;51.984;5.650;2024-01-30T04:03:30;15.70;;;11.68;;
44822;SDS011;51097;51.984;5.650;2024-01-30T04:05:55;16.30;;;12.50;;
44822;SDS011;51097;51.984;5.650;2024-01-30T04:08:21;14.40;;;11.48;;
44822;SDS011;51097;51.984;5.650;2024-01-30T04:10:46;18.73;;;12.05;;
44822;SDS011;51097;51.984;5.650;2024-01-30T04:13:12;13.63;;;11.02;;
44822;SDS011;51097;51.984;5.650;2024-01-30T04:15:38;14.70;;;11.05;;
44822;SDS011;51097;51.984;5.650;2024-01-30T04:18:04;15.90;;;11.68;;
44822;SDS011;51097;51.984;5.650;2024-01-30T04:20:30;14.52;;;11.80;;
44822;SDS011;51097;51.984;5.650;2024-01-30T04:22:55;15.95;;;12.82;;
44822;SDS011;51097;51.984;5.650;2024-01-30T04:25:21;15.48;;;11.82;;
44822;SDS011;51097;51.984;5.650;2024-01-30T04:27:47;15.43;;;11.75;;
44822;SDS011;51097;51.984;5.650;2024-01-30T04:30:12;14.73;;;11.95;;
44822;SDS011;51097;51.984;5.650;2024-01-30T04:32:38;14.95;;;11.25;;
44822;SDS011;51097;51.984;5.650;2024-01-30T04:35:04;15.88;;;11.80;;
44822;SDS011;51097;51.984;5.650;2024-01-30T04:37:29;17.23;;;12.48;;
44822;SDS011;51097;51.984;5.650;2024-01-30T04:39:55;17.83;;;13.52;;
44822;SDS011;51097;51.984;5.650;2024-01-30T04:42:21;15.48;;;11.30;;
44822;SDS011;51097;51.984;5.650;2024-01-30T04:44:47;14.15;;;10.25;;
44822;SDS011;51097;51.984;5.650;2024-01-30T04:47:12;17.27;;;10.85;;
44822;SDS011;51097;51.984;5.650;2024-01-30T04:49:38;16.25;;;11.15;;
44822;SDS011;51097;51.984;5.650;2024-01-30T04:52:05;16.20;;;11.85;;
44822;SDS011;51097;51.984;5.650;2024-01-30T04:54:31;15.35;;;11.57;;
44822;SDS011;51097;51.984;5.650;2024-01-30T04:56:56;13.98;;;11.63;;
44822;SDS011;51097;51.984;5.650;2024-01-30T04:59:22;14.52;;;10.77;;
44822;SDS011;51097;51.984;5.650;2024-01-30T05:01:47;13.85;;;11.52;;
44822;SDS011;51097;51.984;5.650;2024-01-30T05:04:13;15.02;;;10.75;;
44822;SDS011;51097;51.984;5.650;2024-01-30T05:06:39;17.38;;;11.23;;
44822;SDS011;51097;51.984;5.650;2024-01-30T05:09:04;15.18;;;10.55;;
44822;SDS011;51097;51.984;5.650;2024-01-30T05:11:30;19.50;;;11.38;;
44822;SDS011;51097;51.984;5.650;2024-01-30T05:13:55;14.20;;;10.85;;
44822;SDS011;51097;51.984;5.650;2024-01-30T05:16:21;15.43;;;10.48;;
44822;SDS011;51097;51.984;5.650;2024-01-30T05:18:47;15.02;;;11.02;;
44822;SDS011;51097;51.984;5.650;2024-01-30T05:21:12;12.93;;;10.68;;
44822;SDS011;51097;51.984;5.650;2024-01-30T05:23:38;13.43;;;11.10;;
44822;SDS011;51097;51.984;5.650;2024-01-30T05:26:03;15.55;;;10.45;;
44822;SDS011;51097;51.984;5.650;2024-01-30T05:28:29;13.02;;;10.65;;
44822;SDS011;51097;51.984;5.650;2024-01-30T05:30:55;15.20;;;10.88;;
44822;SDS011;51097;51.984;5.650;2024-01-30T05:33:21;15.32;;;11.10;;
44822;SDS011;51097;51.984;5.650;2024-01-30T05:35:47;11.82;;;9.75;;
44822;SDS011;51097;51.984;5.650;2024-01-30T05:38:13;12.63;;;11.00;;
44822;SDS011;51097;51.984;5.650;2024-01-30T05:40:40;15.30;;;11.00;;
44822;SDS011;51097;51.984;5.650;2024-01-30T05:43:05;14.45;;;11.77;;
44822;SDS011;51097;51.984;5.650;2024-01-30T05:45:32;15.48;;;11.43;;
44822;SDS011;51097;51.984;5.650;2024-01-30T05:47:59;15.80;;;11.32;;
44822;SDS011;51097;51.984;5.650;2024-01-30T05:50:24;15.35;;;10.65;;
44822;SDS011;51097;51.984;5.650;2024-01-30T05:52:51;13.85;;;10.50;;
44822;SDS011;51097;51.984;5.650;2024-01-30T05:55:16;14.05;;;10.82;;
44822;SDS011;51097;51.984;5.650;2024-01-30T05:57:42;14.63;;;11.30;;
44822;SDS011;51097;51.984;5.650;2024-01-30T06:00:08;13.20;;;10.35;;
44822;SDS011;51097;51.984;5.650;2024-01-30T06:02:33;13.75;;;10.80;;
44822;SDS011;51097;51.984;5.650;2024-01-30T06:04:59;17.45;;;9.80;;
44822;SDS011;51097;51.984;5.650;2024-01-30T06:07:25;15.38;;;11.40;;
44822;SDS011;51097;51.984;5.650;2024-01-30T06:09:50;15.50;;;10.48;;
44822;SDS011;51097;51.984;5.650;2024-01-30T06:12:16;13.20;;;10.13;;
44822;SDS011;51097;51.984;5.650;2024-01-30T06:14:41;14.02;;;11.13;;
44822;SDS011;51097;51.984;5.650;2024-01-30T06:17:07;13.38;;;10.00;;
44822;SDS011;51097;51.984;5.650;2024-01-30T06:19:37;12.48;;;10.05;;
44822;SDS011;51097;51.984;5.650;2024-01-30T06:22:06;13.52;;;9.75;;
44822;SDS011;51097;51.984;5.650;2024-01-30T06:24:31;17.65;;;10.05;;
44822;SDS011;51097;51.984;5.650;2024-01-30T06:26:57;12.52;;;9.43;;
44822;SDS011;51097;51.984;5.650;2024-01-30T06:29:22;16.15;;;11.40;;
44822;SDS011;51097;51.984;5.650;2024-01-30T06:31:49;14.25;;;10.18;;
44822;SDS011;51097;51.984;5.650;2024-01-30T06:34:15;17.88;;;11.68;;
44822;SDS011;51097;51.984;5.650;2024-01-30T06:36:41;14.13;;;10.10;;
44822;SDS011;51097;51.984;5.650;2024-01-30T06:39:06;13.27;;;10.18;;
44822;SDS011;51097;51.984;5.650;2024-01-30T06:41:32;13.40;;;9.60;;
44822;SDS011;51097;51.984;5.650;2024-01-30T06:43:58;13.85;;;9.68;;
44822;SDS011;51097;51.984;5.650;2024-01-30T06:46:24;14.82;;;9.10;;
44822;SDS011;51097;51.984;5.650;2024-01-30T06:48:49;12.80;;;9.75;;
44822;SDS011;51097;51.984;5.650;2024-01-30T06:51:15;14.60;;;10.85;;
44822;SDS011;51097;51.984;5.650;2024-01-30T06:53:40;10.85;;;9.45;;
44822;SDS011;51097;51.984;5.650;2024-01-30T06:56:06;14.45;;;10.15;;
44822;SDS011;51097;51.984;5.650;2024-01-30T06:58:31;13.20;;;8.82;;
44822;SDS011;51097;51.984;5.650;2024-01-30T07:00:57;13.98;;;9.32;;
44822;SDS011;51097;51.984;5.650;2024-01-30T07:03:24;14.70;;;9.50;;
44822;SDS011;51097;51.984;5.650;2024-01-30T07:05:49;14.15;;;9.85;;
44822;SDS011;51097;51.984;5.650;2024-01-30T07:08:15;12.52;;;9.40;;
44822;SDS011;51097;51.984;5.650;2024-01-30T07:10:42;12.07;;;9.30;;
44822;SDS011;51097;51.984;5.650;2024-01-30T07:13:08;14.10;;;9.93;;
44822;SDS011;51097;51.984;5.650;2024-01-30T07:15:35;13.80;;;9.38;;
44822;SDS011;51097;51.984;5.650;2024-01-30T07:18:01;10.52;;;8.77;;
44822;SDS011;51097;51.984;5.650;2024-01-30T07:20:27;13.73;;;9.05;;
44822;SDS011;51097;51.984;5.650;2024-01-30T07:22:53;13.13;;;8.23;;
44822;SDS011;51097;51.984;5.650;2024-01-30T07:25:18;14.82;;;10.10;;
44822;SDS011;51097;51.984;5.650;2024-01-30T07:27:44;16.52;;;9.25;;
44822;SDS011;51097;51.984;5.650;2024-01-30T07:30:10;19.85;;;10.45;;
44822;SDS011;51097;51.984;5.650;2024-01-30T07:32:35;13.05;;;9.05;;
44822;SDS011;51097;51.984;5.650;2024-01-30T07:35:01;13.77;;;9.90;;
44822;SDS011;51097;51.984;5.650;2024-01-30T07:37:26;13.55;;;9.23;;
44822;SDS011;51097;51.984;5.650;2024-01-30T07:39:53;14.55;;;10.10;;
44822;SDS011;51097;51.984;5.650;2024-01-30T07:42:19;12.80;;;9.75;;
44822;SDS011;51097;51.984;5.650;2024-01-30T07:44:44;17.00;;;9.93;;
44822;SDS011;51097;51.984;5.650;2024-01-30T07:47:10;14.35;;;9.88;;
44822;SDS011;51097;51.984;5.650;2024-01-30T07:49:36;12.65;;;9.70;;
44822;SDS011;51097;51.984;5.650;2024-01-30T07:52:04;13.48;;;9.45;;
44822;SDS011;51097;51.984;5.650;2024-01-30T07:54:30;13.93;;;8.45;;
44822;SDS011;51097;51.984;5.650;2024-01-30T07:56:58;11.45;;;9.10;;
44822;SDS011;51097;51.984;5.650;2024-01-30T07:59:24;11.45;;;8.93;;
44822;SDS011;51097;51.984;5.650;2024-01-30T08:02:02;13.85;;;8.73;;
44822;SDS011;51097;51.984;5.650;2024-01-30T08:04:29;15.23;;;9.85;;
44822;SDS011;51097;51.984;5.650;2024-01-30T08:06:54;11.65;;;8.82;;
44822;SDS011;51097;51.984;5.650;2024-01-30T08:09:20;11.13;;;8.45;;
44822;SDS011;51097;51.984;5.650;2024-01-30T08:11:45;12.95;;;9.82;;
44822;SDS011;51097;51.984;5.650;2024-01-30T08:14:11;11.18;;;9.15;;
44822;SDS011;51097;51.984;5.650;2024-01-30T08:16:38;13.25;;;9.02;;
44822;SDS011;51097;51.984;5.650;2024-01-30T08:19:04;10.95;;;8.55;;
44822;SDS011;51097;51.984;5.650;2024-01-30T08:21:29;12.30;;;9.63;;
44822;SDS011;51097;51.984;5.650;2024-01-30T08:23:55;14.52;;;9.35;;
44822;SDS011;51097;51.984;5.650;2024-01-30T08:26:21;13.80;;;8.13;;
44822;SDS011;51097;51.984;5.650;2024-01-30T08:28:46;15.25;;;8.98;;
44822;SDS011;51097;51.984;5.650;2024-01-30T08:31:12;11.15;;;8.40;;
44822;SDS011;51097;51.984;5.650;2024-01-30T08:33:37;11.35;;;9.23;;
44822;SDS011;51097;51.984;5.650;2024-01-30T08:36:03;9.57;;;8.02;;
44822;SDS011;51097;51.984;5.650;2024-01-30T08:38:29;11.85;;;8.35;;
44822;SDS011;51097;51.984;5.650;2024-01-30T08:40:55;11.65;;;8.70;;
44822;SDS011;51097;51.984;5.650;2024-01-30T08:43:21;10.38;;;8.82;;
44822;SDS011;51097;51.984;5.650;2024-01-30T08:45:47;11.50;;;8.57;;
44822;SDS011;51097;51.984;5.650;2024-01-30T08:48:12;13.93;;;8.60;;
44822;SDS011;51097;51.984;5.650;2024-01-30T08:50:38;13.95;;;8.82;;
44822;SDS011;51097;51.984;5.650;2024-01-30T08:53:04;10.48;;;8.70;;
44822;SDS011;51097;51.984;5.650;2024-01-30T08:55:29;10.90;;;8.75;;
44822;SDS011;51097;51.984;5.650;2024-01-30T08:57:56;13.82;;;8.43;;
44822;SDS011;51097;51.984;5.650;2024-01-30T09:00:21;12.60;;;8.55;;
44822;SDS011;51097;51.984;5.650;2024-01-30T09:02:47;11.38;;;8.68;;
44822;SDS011;51097;51.984;5.650;2024-01-30T09:05:12;11.85;;;9.32;;
44822;SDS011;51097;51.984;5.650;2024-01-30T09:07:38;11.27;;;8.43;;
44822;SDS011;51097;51.984;5.650;2024-01-30T09:10:03;13.23;;;9.07;;
44822;SDS011;51097;51.984;5.650;2024-01-30T09:12:30;16.92;;;9.50;;
44822;SDS011;51097;51.984;5.650;2024-01-30T09:14:55;15.35;;;8.55;;
44822;SDS011;51097;51.984;5.650;2024-01-30T09:17:21;13.80;;;9.30;;
44822;SDS011;51097;51.984;5.650;2024-01-30T09:19:46;14.88;;;9.93;;
44822;SDS011;51097;51.984;5.650;2024-01-30T09:22:12;12.38;;;8.80;;
44822;SDS011;51097;51.984;5.650;2024-01-30T09:24:37;13.90;;;9.98;;
44822;SDS011;51097;51.984;5.650;2024-01-30T09:27:03;12.27;;;9.60;;
44822;SDS011;51097;51.984;5.650;2024-01-30T09:29:29;11.68;;;8.65;;
44822;SDS011;51097;51.984;5.650;2024-01-30T09:31:54;13.40;;;8.73;;
44822;SDS011;51097;51.984;5.650;2024-01-30T09:34:20;13.30;;;8.63;;
44822;SDS011;51097;51.984;5.650;2024-01-30T09:36:45;13.43;;;10.40;;
44822;SDS011;51097;51.984;5.650;2024-01-30T09:39:11;11.68;;;8.77;;
44822;SDS011;51097;51.984;5.650;2024-01-30T09:41:45;12.32;;;8.70;;
44822;SDS011;51097;51.984;5.650;2024-01-30T09:44:16;16.95;;;8.57;;
44822;SDS011;51097;51.984;5.650;2024-01-30T09:46:44;13.88;;;8.85;;
44822;SDS011;51097;51.984;5.650;2024-01-30T09:49:13;13.85;;;9.38;;
44822;SDS011;51097;51.984;5.650;2024-01-30T09:51:39;18.02;;;9.68;;
44822;SDS011;51097;51.984;5.650;2024-01-30T09:54:06;15.45;;;9.73;;
44822;SDS011;51097;51.984;5.650;2024-01-30T09:56:33;15.05;;;9.82;;
44822;SDS011;51097;51.984;5.650;2024-01-30T09:58:59;12.73;;;10.35;;
44822;SDS011;51097;51.984;5.650;2024-01-30T10:01:24;11.35;;;9.15;;
44822;SDS011;51097;51.984;5.650;2024-01-30T10:03:50;15.90;;;9.30;;
44822;SDS011;51097;51.984;5.650;2024-01-30T10:06:19;15.05;;;9.73;;
44822;SDS011;51097;51.984;5.650;2024-01-30T10:08:46;13.50;;;8.82;;
44822;SDS011;51097;51.984;5.650;2024-01-30T10:11:11;14.98;;;10.05;;
44822;SDS011;51097;51.984;5.650;2024-01-30T10:13:38;13.90;;;9.43;;
44822;SDS011;51097;51.984;5.650;2024-01-30T10:16:04;13.10;;;9.32;;
44822;SDS011;51097;51.984;5.650;2024-01-30T10:18:31;12.88;;;9.85;;
44822;SDS011;51097;51.984;5.650;2024-01-30T10:20:57;13.68;;;8.93;;
44822;SDS011;51097;51.984;5.650;2024-01-30T10:23:23;13.85;;;9.63;;
44822;SDS011;51097;51.984;5.650;2024-01-30T10:25:50;12.10;;;8.77;;
44822;SDS011;51097;51.984;5.650;2024-01-30T10:28:16;11.13;;;9.77;;
44822;SDS011;51097;51.984;5.650;2024-01-30T10:30:42;15.93;;;11.13;;
44822;SDS011;51097;51.984;5.650;2024-01-30T10:33:08;14.13;;;9.88;;
44822;SDS011;51097;51.984;5.650;2024-01-30T10:35:33;15.73;;;8.75;;
44822;SDS011;51097;51.984;5.650;2024-01-30T10:37:59;12.68;;;9.07;;
44822;SDS011;51097;51.984;5.650;2024-01-30T10:40:27;13.00;;;8.13;;
44822;SDS011;51097;51.984;5.650;2024-01-30T10:42:53;17.90;;;8.85;;
44822;SDS011;51097;51.984;5.650;2024-01-30T10:45:20;11.35;;;8.40;;
44822;SDS011;51097;51.984;5.650;2024-01-30T10:47:52;16.23;;;8.68;;
44822;SDS011;51097;51.984;5.650;2024-01-30T10:50:19;12.73;;;8.90;;
44822;SDS011;51097;51.984;5.650;2024-01-30T10:52:45;13.50;;;8.55;;
44822;SDS011;51097;51.984;5.650;2024-01-30T10:55:12;13.23;;;8.48;;
44822;SDS011;51097;51.984;5.650;2024-01-30T10:57:40;10.23;;;7.75;;
44822;SDS011;51097;51.984;5.650;2024-01-30T11:00:07;14.93;;;8.93;;
44822;SDS011;51097;51.984;5.650;2024-01-30T11:02:38;10.27;;;7.70;;
44822;SDS011;51097;51.984;5.650;2024-01-30T11:05:06;11.95;;;7.80;;
44822;SDS011;51097;51.984;5.650;2024-01-30T11:07:33;10.60;;;8.07;;
44822;SDS011;51097;51.984;5.650;2024-01-30T11:12:25;11.85;;;8.90;;
44822;SDS011;51097;51.984;5.650;2024-01-30T11:15:02;12.18;;;8.40;;
44822;SDS011;51097;51.984;5.650;2024-01-30T11:17:39;11.60;;;8.40;;
44822;SDS011;51097;51.984;5.650;2024-01-30T11:20:15;11.80;;;8.07;;
44822;SDS011;51097;51.984;5.650;2024-01-30T11:22:45;13.80;;;9.82;;
44822;SDS011;51097;51.984;5.650;2024-01-30T11:25:15;10.63;;;8.48;;
44822;SDS011;51097;51.984;5.650;2024-01-30T11:30:08;15.80;;;9.45;;
44822;SDS011;51097;51.984;5.650;2024-01-30T11:32:34;11.52;;;8.93;;
44822;SDS011;51097;51.984;5.650;2024-01-30T11:35:00;14.30;;;9.55;;
44822;SDS011;51097;51.984;5.650;2024-01-30T11:37:30;15.60;;;10.95;;
44822;SDS011;51097;51.984;5.650;2024-01-30T11:39:56;12.73;;;9.90;;
44822;SDS011;51097;51.984;5.650;2024-01-30T11:42:23;13.00;;;9.38;;
44822;SDS011;51097;51.984;5.650;2024-01-30T11:44:52;13.88;;;9.30;;
44822;SDS011;51097;51.984;5.650;2024-01-30T11:47:17;12.75;;;9.55;;
44822;SDS011;51097;51.984;5.650;2024-01-30T11:49:43;12.40;;;10.23;;
44822;SDS011;51097;51.984;5.650;2024-01-30T11:52:09;11.43;;;8.80;;
44822;SDS011;51097;51.984;5.650;2024-01-30T11:54:35;9.57;;;6.95;;
44822;SDS011;51097;51.984;5.650;2024-01-30T11:57:01;11.43;;;7.50;;
44822;SDS011;51097;51.984;5.650;2024-01-30T11:59:26;10.98;;;7.72;;
44822;SDS011;51097;51.984;5.650;2024-01-30T12:01:52;10.95;;;6.75;;
44822;SDS011;51097;51.984;5.650;2024-01-30T12:04:17;10.65;;;5.30;;
44822;SDS011;51097;51.984;5.650;2024-01-30T12:06:43;7.93;;;4.93;;
44822;SDS011;51097;51.984;5.650;2024-01-30T12:09:09;6.80;;;4.15;;
44822;SDS011;51097;51.984;5.650;2024-01-30T12:11:43;4.82;;;4.15;;
44822;SDS011;51097;51.984;5.650;2024-01-30T12:14:10;6.75;;;3.53;;
44822;SDS011;51097;51.984;5.650;2024-01-30T12:16:36;12.93;;;4.20;;
44822;SDS011;51097;51.984;5.650;2024-01-30T12:19:06;5.35;;;3.95;;
44822;SDS011;51097;51.984;5.650;2024-01-30T12:21:33;13.18;;;4.72;;
44822;SDS011;51097;51.984;5.650;2024-01-30T12:23:59;7.28;;;3.80;;
44822;SDS011;51097;51.984;5.650;2024-01-30T12:26:25;8.30;;;3.60;;
44822;SDS011;51097;51.984;5.650;2024-01-30T12:28:54;11.55;;;2.70;;
44822;SDS011;51097;51.984;5.650;2024-01-30T12:31:26;7.45;;;3.85;;
44822;SDS011;51097;51.984;5.650;2024-01-30T12:33:53;6.57;;;2.80;;
44822;SDS011;51097;51.984;5.650;2024-01-30T12:36:19;8.65;;;2.20;;
44822;SDS011;51097;51.984;5.650;2024-01-30T12:38:45;3.80;;;1.60;;
44822;SDS011;51097;51.984;5.650;2024-01-30T12:41:11;4.90;;;1.65;;
44822;SDS011;51097;51.984;5.650;2024-01-30T12:43:37;3.38;;;1.60;;
44822;SDS011;51097;51.984;5.650;2024-01-30T12:46:02;3.30;;;1.08;;
44822;SDS011;51097;51.984;5.650;2024-01-30T12:48:28;8.63;;;2.13;;
44822;SDS011;51097;51.984;5.650;2024-01-30T12:50:54;4.28;;;1.25;;
44822;SDS011;51097;51.984;5.650;2024-01-30T12:53:21;3.50;;;1.27;;
44822;SDS011;51097;51.984;5.650;2024-01-30T12:55:46;2.88;;;1.17;;
44822;SDS011;51097;51.984;5.650;2024-01-30T12:58:12;4.72;;;1.00;;
44822;SDS011;51097;51.984;5.650;2024-01-30T13:00:38;2.40;;;1.20;;
44822;SDS011;51097;51.984;5.650;2024-01-30T13:03:03;2.35;;;1.15;;
44822;SDS011;51097;51.984;5.650;2024-01-30T13:05:29;3.42;;;1.00;;
44822;SDS011;51097;51.984;5.650;2024-01-30T13:07:55;2.47;;;1.85;;
44822;SDS011;51097;51.984;5.650;2024-01-30T13:10:23;1.45;;;0.90;;
44822;SDS011;51097;51.984;5.650;2024-01-30T13:12:49;3.40;;;1.20;;
44822;SDS011;51097;51.984;5.650;2024-01-30T13:15:14;5.57;;;2.47;;
44822;SDS011;51097;51.984;5.650;2024-01-30T13:17:40;5.82;;;3.17;;
44822;SDS011;51097;51.984;5.650;2024-01-30T13:20:07;7.10;;;3.22;;
44822;SDS011;51097;51.984;5.650;2024-01-30T13:22:33;9.35;;;4.05;;
44822;SDS011;51097;51.984;5.650;2024-01-30T13:24:59;5.65;;;3.80;;
44822;SDS011;51097;51.984;5.650;2024-01-30T13:27:24;4.10;;;3.40;;
44822;SDS011;51097;51.984;5.650;2024-01-30T13:29:50;10.02;;;4.55;;
44822;SDS011;51097;51.984;5.650;2024-01-30T13:32:15;8.77;;;3.80;;
44822;SDS011;51097;51.984;5.650;2024-01-30T13:34:41;6.80;;;3.53;;
44822;SDS011;51097;51.984;5.650;2024-01-30T13:37:08;9.40;;;4.07;;
44822;SDS011;51097;51.984;5.650;2024-01-30T13:39:33;6.57;;;4.18;;
44822;SDS011;51097;51.984;5.650;2024-01-30T13:41:59;12.07;;;5.35;;
44822;SDS011;51097;51.984;5.650;2024-01-30T13:44:24;8.98;;;4.38;;
44822;SDS011;51097;51.984;5.650;2024-01-30T13:46:50;16.85;;;5.78;;
44822;SDS011;51097;51.984;5.650;2024-01-30T13:49:16;7.18;;;3.70;;
44822;SDS011;51097;51.984;5.650;2024-01-30T13:51:41;8.82;;;4.30;;
44822;SDS011;51097;51.984;5.650;2024-01-30T13:54:07;15.02;;;5.05;;
44822;SDS011;51097;51.984;5.650;2024-01-30T13:56:33;9.25;;;4.30;;
44822;SDS011;51097;51.984;5.650;2024-01-30T13:58:59;7.45;;;4.00;;
44822;SDS011;51097;51.984;5.650;2024-01-30T14:01:26;6.03;;;3.90;;
44822;SDS011;51097;51.984;5.650;2024-01-30T14:03:51;9.73;;;3.17;;
44822;SDS011;51097;51.984;5.650;2024-01-30T14:06:17;4.25;;;2.47;;
44822;SDS011;51097;51.984;5.650;2024-01-30T14:08:43;7.88;;;2.30;;
44822;SDS011;51097;51.984;5.650;2024-01-30T14:11:09;6.20;;;2.25;;
44822;SDS011;51097;51.984;5.650;2024-01-30T14:13:34;7.20;;;2.20;;
44822;SDS011;51097;51.984;5.650;2024-01-30T14:16:00;5.63;;;2.35;;
44822;SDS011;51097;51.984;5.650;2024-01-30T14:18:26;6.40;;;2.55;;
44822;SDS011;51097;51.984;5.650;2024-01-30T14:20:51;3.90;;;2.65;;
44822;SDS011;51097;51.984;5.650;2024-01-30T14:23:17;5.63;;;2.92;;
44822;SDS011;51097;51.984;5.650;2024-01-30T14:25:43;5.25;;;3.10;;
44822;SDS011;51097;51.984;5.650;2024-01-30T14:28:08;4.88;;;3.40;;
44822;SDS011;51097;51.984;5.650;2024-01-30T14:30:34;6.72;;;3.78;;